Airfield :
LOGIN :

Register | Disclaimer

   EN    FR    IT 

 










Legend :    VFR   Marginal VFR   IFR   Intensive IFR   Very Intensive IFR
Visi :
Ceiling :
>= 8 km
>= 3000ft
5 to 8 km
1000 to 3000 ft
1500m to 5 km
500 to 1000 ft
800 to 1500m
200 to 500 ft
< 800m
< 200 ft
Symbols :   Thunderstorms  Fog  Heavy snow  Heavy precipitations  Wind > 20 kt
SIGMETs :     Misc.  Thunderstorms  Icing  Turbulence  Mountain Waves  Volcanic Ashes







- Airport Elevation : 699 ft
- IATA code : PAD


EDLP - Paderborn Lippstadt

CURRENT METAR :
  • 190220Z 26007KT 230V320 9999 SCT040 03/02 Q1012

EXPIRED METARs :
  • 190150Z 25008KT 230V290 9999 BKN035 04/02 Q1012
  • 190120Z 25008KT 210V290 9999 -RA SCT040 04/02 Q1012
  • 190050Z 25009G19KT 230V300 9999 -RA SCT010 BKN030 04/02 Q1012
  • 190020Z 26010KT 220V290 9999 -RA FEW010 BKN030 04/03 Q1013
  • 182350Z 25009KT 220V290 9999 -RA SCT012 BKN040 04/03 Q1013

TAF TAF EDLP
Valid from the 19 at 00:00 until the 20 at 00:00 UTC


182300Z 1900/1924 26010KT 9999 SCT015
TEMPO 1900/1903 BKN007
PROB40
TEMPO 1900/1903 BKN004
BECMG 1908/1911 27015G25KT
TEMPO 1912/1918 SHRAGS BKN013CB
BECMG 1916/1918 27011KT
No reported NOTAMs for that airfield.



MET'MAP, your aeronautical weather chart ! - Copyright ORBIFLY December 2007 - Disclaimer

ORBIFLY MET'MAP TEAM :

Programming & Development : Alexandra Zaïnal
Concept & Development : Baudouin d'Aumeries
Co-Development & Prog : Marc-Olivier Méhu
Technical & hardware support : Manuel Goepfert

Contact : metmap@orbifly.com




SOURCES & CREDITS :

   NOAA